sensor_id;sensor_type;location;lat;lon;timestamp;P1;durP1;ratioP1;P2;durP2;ratioP2
29384;SDS011;16367;48.736;9.218;2023-11-22T00:00:15;14.48;;;6.35;;
29384;SDS011;16367;48.736;9.218;2023-11-22T00:02:17;17.02;;;7.13;;
29384;SDS011;16367;48.736;9.218;2023-11-22T00:04:19;12.85;;;5.72;;
29384;SDS011;16367;48.736;9.218;2023-11-22T00:06:21;19.63;;;6.78;;
29384;SDS011;16367;48.736;9.218;2023-11-22T00:08:23;14.30;;;7.18;;
29384;SDS011;16367;48.736;9.218;2023-11-22T00:13:06;16.27;;;6.40;;
29384;SDS011;16367;48.736;9.218;2023-11-22T00:15:08;14.20;;;5.78;;
29384;SDS011;16367;48.736;9.218;2023-11-22T00:17:11;16.40;;;6.63;;
29384;SDS011;16367;48.736;9.218;2023-11-22T00:19:12;13.68;;;5.63;;
29384;SDS011;16367;48.736;9.218;2023-11-22T00:21:16;10.40;;;4.68;;
29384;SDS011;16367;48.736;9.218;2023-11-22T00:23:17;10.35;;;4.15;;
29384;SDS011;16367;48.736;9.218;2023-11-22T00:25:19;8.40;;;3.65;;
29384;SDS011;16367;48.736;9.218;2023-11-22T00:27:21;9.20;;;3.30;;
29384;SDS011;16367;48.736;9.218;2023-11-22T00:29:23;7.82;;;3.08;;
29384;SDS011;16367;48.736;9.218;2023-11-22T00:34:32;6.75;;;3.28;;
29384;SDS011;16367;48.736;9.218;2023-11-22T00:36:33;8.00;;;3.70;;
29384;SDS011;16367;48.736;9.218;2023-11-22T00:38:34;10.32;;;4.28;;
29384;SDS011;16367;48.736;9.218;2023-11-22T00:40:36;8.40;;;4.00;;
29384;SDS011;16367;48.736;9.218;2023-11-22T00:42:38;10.15;;;4.00;;
29384;SDS011;16367;48.736;9.218;2023-11-22T00:44:40;9.10;;;4.03;;
29384;SDS011;16367;48.736;9.218;2023-11-22T00:50:41;8.55;;;3.80;;
29384;SDS011;16367;48.736;9.218;2023-11-22T00:54:03;10.18;;;4.45;;
29384;SDS011;16367;48.736;9.218;2023-11-22T00:56:04;12.80;;;4.68;;
29384;SDS011;16367;48.736;9.218;2023-11-22T00:58:06;9.45;;;4.22;;
29384;SDS011;16367;48.736;9.218;2023-11-22T01:00:08;10.35;;;4.68;;
29384;SDS011;16367;48.736;9.218;2023-11-22T01:02:10;10.35;;;4.65;;
29384;SDS011;16367;48.736;9.218;2023-11-22T01:06:12;9.68;;;4.38;;
29384;SDS011;16367;48.736;9.218;2023-11-22T01:08:13;11.73;;;5.90;;
29384;SDS011;16367;48.736;9.218;2023-11-22T01:10:15;12.77;;;5.43;;
29384;SDS011;16367;48.736;9.218;2023-11-22T01:14:38;12.15;;;4.75;;
29384;SDS011;16367;48.736;9.218;2023-11-22T01:16:39;10.98;;;4.68;;
29384;SDS011;16367;48.736;9.218;2023-11-22T01:18:41;10.27;;;4.55;;
29384;SDS011;16367;48.736;9.218;2023-11-22T01:20:46;13.32;;;5.63;;
29384;SDS011;16367;48.736;9.218;2023-11-22T01:22:47;10.63;;;4.90;;
29384;SDS011;16367;48.736;9.218;2023-11-22T01:24:49;9.50;;;4.45;;
29384;SDS011;16367;48.736;9.218;2023-11-22T01:26:50;12.52;;;5.20;;
29384;SDS011;16367;48.736;9.218;2023-11-22T01:28:51;11.35;;;4.65;;
29384;SDS011;16367;48.736;9.218;2023-11-22T01:30:53;11.27;;;4.32;;
29384;SDS011;16367;48.736;9.218;2023-11-22T01:37:08;12.27;;;4.72;;
29384;SDS011;16367;48.736;9.218;2023-11-22T01:39:10;13.48;;;5.07;;
29384;SDS011;16367;48.736;9.218;2023-11-22T01:41:13;16.00;;;5.88;;
29384;SDS011;16367;48.736;9.218;2023-11-22T01:43:14;12.27;;;5.32;;
29384;SDS011;16367;48.736;9.218;2023-11-22T01:45:18;14.45;;;6.13;;
29384;SDS011;16367;48.736;9.218;2023-11-22T01:47:19;12.27;;;5.28;;
29384;SDS011;16367;48.736;9.218;2023-11-22T01:49:21;11.68;;;5.43;;
29384;SDS011;16367;48.736;9.218;2023-11-22T01:51:24;14.38;;;5.00;;
29384;SDS011;16367;48.736;9.218;2023-11-22T01:53:27;13.70;;;5.22;;
29384;SDS011;16367;48.736;9.218;2023-11-22T02:00:58;13.15;;;5.65;;
29384;SDS011;16367;48.736;9.218;2023-11-22T02:03:01;11.77;;;4.85;;
29384;SDS011;16367;48.736;9.218;2023-11-22T02:05:04;12.77;;;5.35;;
29384;SDS011;16367;48.736;9.218;2023-11-22T02:07:05;13.20;;;5.22;;
29384;SDS011;16367;48.736;9.218;2023-11-22T02:09:07;13.10;;;5.68;;
29384;SDS011;16367;48.736;9.218;2023-11-22T02:11:16;11.30;;;4.78;;
29384;SDS011;16367;48.736;9.218;2023-11-22T02:13:22;13.02;;;5.30;;
29384;SDS011;16367;48.736;9.218;2023-11-22T02:15:23;11.50;;;5.13;;
29384;SDS011;16367;48.736;9.218;2023-11-22T02:17:26;12.55;;;4.95;;
29384;SDS011;16367;48.736;9.218;2023-11-22T02:25:43;10.48;;;4.63;;
29384;SDS011;16367;48.736;9.218;2023-11-22T02:27:46;8.02;;;3.53;;
29384;SDS011;16367;48.736;9.218;2023-11-22T02:29:47;8.90;;;3.67;;
29384;SDS011;16367;48.736;9.218;2023-11-22T02:31:48;8.07;;;3.45;;
29384;SDS011;16367;48.736;9.218;2023-11-22T02:33:50;7.85;;;3.25;;
29384;SDS011;16367;48.736;9.218;2023-11-22T02:35:51;8.32;;;3.70;;
29384;SDS011;16367;48.736;9.218;2023-11-22T02:37:52;9.70;;;3.75;;
29384;SDS011;16367;48.736;9.218;2023-11-22T02:39:56;7.88;;;3.58;;
29384;SDS011;16367;48.736;9.218;2023-11-22T02:42:02;8.98;;;3.70;;
29384;SDS011;16367;48.736;9.218;2023-11-22T02:50:13;8.30;;;3.25;;
29384;SDS011;16367;48.736;9.218;2023-11-22T02:52:16;8.00;;;3.25;;
29384;SDS011;16367;48.736;9.218;2023-11-22T02:54:17;9.95;;;4.07;;
29384;SDS011;16367;48.736;9.218;2023-11-22T02:56:18;9.32;;;3.80;;
29384;SDS011;16367;48.736;9.218;2023-11-22T02:58:20;8.90;;;3.92;;
29384;SDS011;16367;48.736;9.218;2023-11-22T03:00:21;9.68;;;3.70;;
29384;SDS011;16367;48.736;9.218;2023-11-22T03:02:23;7.97;;;3.38;;
29384;SDS011;16367;48.736;9.218;2023-11-22T03:04:24;8.85;;;4.10;;
29384;SDS011;16367;48.736;9.218;2023-11-22T03:06:26;8.05;;;3.63;;
29384;SDS011;16367;48.736;9.218;2023-11-22T03:13:46;10.77;;;4.47;;
29384;SDS011;16367;48.736;9.218;2023-11-22T03:15:49;10.77;;;4.28;;
29384;SDS011;16367;48.736;9.218;2023-11-22T03:17:51;8.25;;;3.42;;
29384;SDS011;16367;48.736;9.218;2023-11-22T03:19:52;9.98;;;4.30;;
29384;SDS011;16367;48.736;9.218;2023-11-22T03:21:53;8.88;;;3.83;;
29384;SDS011;16367;48.736;9.218;2023-11-22T03:25:55;8.38;;;4.03;;
29384;SDS011;16367;48.736;9.218;2023-11-22T03:29:59;10.15;;;3.90;;
29384;SDS011;16367;48.736;9.218;2023-11-22T03:34:19;8.25;;;3.15;;
29384;SDS011;16367;48.736;9.218;2023-11-22T03:36:20;7.53;;;3.75;;
29384;SDS011;16367;48.736;9.218;2023-11-22T03:38:23;8.48;;;3.53;;
29384;SDS011;16367;48.736;9.218;2023-11-22T03:40:24;8.75;;;3.67;;
29384;SDS011;16367;48.736;9.218;2023-11-22T03:44:27;7.32;;;2.88;;
29384;SDS011;16367;48.736;9.218;2023-11-22T03:46:28;9.85;;;3.42;;
29384;SDS011;16367;48.736;9.218;2023-11-22T03:48:29;8.05;;;3.25;;
29384;SDS011;16367;48.736;9.218;2023-11-22T03:58:50;7.80;;;2.65;;
29384;SDS011;16367;48.736;9.218;2023-11-22T04:00:51;7.70;;;3.58;;
29384;SDS011;16367;48.736;9.218;2023-11-22T04:02:53;9.30;;;3.13;;
29384;SDS011;16367;48.736;9.218;2023-11-22T04:04:54;7.53;;;3.30;;
29384;SDS011;16367;48.736;9.218;2023-11-22T04:08:56;7.53;;;2.75;;
29384;SDS011;16367;48.736;9.218;2023-11-22T04:10:59;7.80;;;3.00;;
29384;SDS011;16367;48.736;9.218;2023-11-22T04:15:02;8.45;;;2.90;;
29384;SDS011;16367;48.736;9.218;2023-11-22T04:17:30;7.93;;;3.17;;
29384;SDS011;16367;48.736;9.218;2023-11-22T04:19:33;11.00;;;4.03;;
29384;SDS011;16367;48.736;9.218;2023-11-22T04:21:34;8.90;;;3.75;;
29384;SDS011;16367;48.736;9.218;2023-11-22T04:23:35;7.70;;;3.28;;
29384;SDS011;16367;48.736;9.218;2023-11-22T04:25:37;11.80;;;3.92;;
29384;SDS011;16367;48.736;9.218;2023-11-22T04:29:39;8.35;;;3.58;;
29384;SDS011;16367;48.736;9.218;2023-11-22T04:31:40;7.55;;;3.33;;
29384;SDS011;16367;48.736;9.218;2023-11-22T04:40:01;8.65;;;3.45;;
29384;SDS011;16367;48.736;9.218;2023-11-22T04:42:04;10.48;;;3.53;;
29384;SDS011;16367;48.736;9.218;2023-11-22T04:44:06;7.97;;;3.63;;
29384;SDS011;16367;48.736;9.218;2023-11-22T04:46:07;7.28;;;3.88;;
29384;SDS011;16367;48.736;9.218;2023-11-22T04:48:09;8.80;;;4.28;;
29384;SDS011;16367;48.736;9.218;2023-11-22T04:50:10;8.65;;;3.75;;
29384;SDS011;16367;48.736;9.218;2023-11-22T04:52:11;8.50;;;3.40;;
29384;SDS011;16367;48.736;9.218;2023-11-22T04:54:13;8.70;;;3.33;;
29384;SDS011;16367;48.736;9.218;2023-11-22T05:00:44;8.55;;;3.10;;
29384;SDS011;16367;48.736;9.218;2023-11-22T05:02:46;8.77;;;3.20;;
29384;SDS011;16367;48.736;9.218;2023-11-22T05:04:47;7.45;;;2.88;;
29384;SDS011;16367;48.736;9.218;2023-11-22T05:06:49;8.13;;;3.38;;
29384;SDS011;16367;48.736;9.218;2023-11-22T05:08:50;7.85;;;3.35;;
29384;SDS011;16367;48.736;9.218;2023-11-22T05:10:51;7.22;;;3.20;;
29384;SDS011;16367;48.736;9.218;2023-11-22T05:12:55;7.10;;;2.72;;
29384;SDS011;16367;48.736;9.218;2023-11-22T05:15:00;6.03;;;2.80;;
29384;SDS011;16367;48.736;9.218;2023-11-22T05:17:01;7.00;;;2.83;;
29384;SDS011;16367;48.736;9.218;2023-11-22T05:25:23;8.95;;;3.33;;
29384;SDS011;16367;48.736;9.218;2023-11-22T05:27:25;6.47;;;2.58;;
29384;SDS011;16367;48.736;9.218;2023-11-22T05:31:32;8.70;;;3.20;;
29384;SDS011;16367;48.736;9.218;2023-11-22T05:33:34;8.10;;;2.85;;
29384;SDS011;16367;48.736;9.218;2023-11-22T05:35:35;8.40;;;3.00;;
29384;SDS011;16367;48.736;9.218;2023-11-22T05:37:36;7.47;;;3.58;;
29384;SDS011;16367;48.736;9.218;2023-11-22T05:39:37;4.80;;;2.35;;
29384;SDS011;16367;48.736;9.218;2023-11-22T05:49:58;5.50;;;2.40;;
29384;SDS011;16367;48.736;9.218;2023-11-22T05:52:00;9.13;;;3.08;;
29384;SDS011;16367;48.736;9.218;2023-11-22T05:54:01;6.55;;;2.83;;
29384;SDS011;16367;48.736;9.218;2023-11-22T05:56:02;9.27;;;3.25;;
29384;SDS011;16367;48.736;9.218;2023-11-22T05:58:06;9.70;;;3.30;;
29384;SDS011;16367;48.736;9.218;2023-11-22T06:00:08;6.85;;;2.92;;
29384;SDS011;16367;48.736;9.218;2023-11-22T06:02:09;7.13;;;3.25;;
29384;SDS011;16367;48.736;9.218;2023-11-22T06:06:12;9.18;;;3.28;;
29384;SDS011;16367;48.736;9.218;2023-11-22T06:16:35;7.95;;;2.80;;
29384;SDS011;16367;48.736;9.218;2023-11-22T06:18:37;11.10;;;3.72;;
29384;SDS011;16367;48.736;9.218;2023-11-22T06:20:40;8.05;;;3.45;;
29384;SDS011;16367;48.736;9.218;2023-11-22T06:22:42;8.18;;;4.05;;
29384;SDS011;16367;48.736;9.218;2023-11-22T06:26:44;8.52;;;3.25;;
29384;SDS011;16367;48.736;9.218;2023-11-22T06:28:46;10.10;;;3.13;;
29384;SDS011;16367;48.736;9.218;2023-11-22T06:30:49;7.25;;;2.97;;
29384;SDS011;16367;48.736;9.218;2023-11-22T06:37:10;8.18;;;3.42;;
29384;SDS011;16367;48.736;9.218;2023-11-22T06:39:11;9.48;;;4.47;;
29384;SDS011;16367;48.736;9.218;2023-11-22T06:41:14;7.68;;;3.35;;
29384;SDS011;16367;48.736;9.218;2023-11-22T06:43:15;8.50;;;3.40;;
29384;SDS011;16367;48.736;9.218;2023-11-22T06:45:16;7.70;;;3.50;;
29384;SDS011;16367;48.736;9.218;2023-11-22T06:47:18;9.43;;;3.50;;
29384;SDS011;16367;48.736;9.218;2023-11-22T06:49:19;8.35;;;3.50;;
29384;SDS011;16367;48.736;9.218;2023-11-22T06:51:20;8.45;;;4.15;;
29384;SDS011;16367;48.736;9.218;2023-11-22T06:53:23;7.68;;;3.65;;
29384;SDS011;16367;48.736;9.218;2023-11-22T06:59:06;7.57;;;3.08;;
29384;SDS011;16367;48.736;9.218;2023-11-22T07:01:07;7.15;;;2.92;;
29384;SDS011;16367;48.736;9.218;2023-11-22T07:03:08;8.35;;;2.97;;
29384;SDS011;16367;48.736;9.218;2023-11-22T07:05:09;8.43;;;3.20;;
29384;SDS011;16367;48.736;9.218;2023-11-22T07:07:11;9.60;;;3.58;;
29384;SDS011;16367;48.736;9.218;2023-11-22T07:09:12;7.90;;;3.00;;
29384;SDS011;16367;48.736;9.218;2023-11-22T07:11:20;9.45;;;3.17;;
29384;SDS011;16367;48.736;9.218;2023-11-22T07:13:22;6.82;;;3.13;;
29384;SDS011;16367;48.736;9.218;2023-11-22T07:15:23;7.55;;;3.28;;
29384;SDS011;16367;48.736;9.218;2023-11-22T07:25:00;8.07;;;3.35;;
29384;SDS011;16367;48.736;9.218;2023-11-22T07:27:03;7.28;;;2.58;;
29384;SDS011;16367;48.736;9.218;2023-11-22T07:29:04;7.40;;;3.03;;
29384;SDS011;16367;48.736;9.218;2023-11-22T07:31:06;9.48;;;2.92;;
29384;SDS011;16367;48.736;9.218;2023-11-22T07:35:09;7.15;;;2.92;;
29384;SDS011;16367;48.736;9.218;2023-11-22T07:37:10;8.57;;;2.65;;
29384;SDS011;16367;48.736;9.218;2023-11-22T07:39:13;5.85;;;2.33;;
29384;SDS011;16367;48.736;9.218;2023-11-22T07:41:15;7.95;;;3.20;;
29384;SDS011;16367;48.736;9.218;2023-11-22T07:46:43;7.00;;;2.42;;
29384;SDS011;16367;48.736;9.218;2023-11-22T07:48:44;7.47;;;2.67;;
29384;SDS011;16367;48.736;9.218;2023-11-22T07:50:47;6.05;;;2.50;;
29384;SDS011;16367;48.736;9.218;2023-11-22T07:52:49;5.85;;;2.47;;
29384;SDS011;16367;48.736;9.218;2023-11-22T07:54:51;5.90;;;2.47;;
29384;SDS011;16367;48.736;9.218;2023-11-22T07:56:52;10.80;;;2.60;;
29384;SDS011;16367;48.736;9.218;2023-11-22T08:00:54;8.48;;;2.50;;
29384;SDS011;16367;48.736;9.218;2023-11-22T08:02:57;6.35;;;2.55;;
29384;SDS011;16367;48.736;9.218;2023-11-22T08:08:18;8.68;;;3.00;;
29384;SDS011;16367;48.736;9.218;2023-11-22T08:11:20;5.95;;;2.58;;
29384;SDS011;16367;48.736;9.218;2023-11-22T08:14:20;6.25;;;2.03;;
29384;SDS011;16367;48.736;9.218;2023-11-22T08:17:21;6.55;;;2.58;;
29384;SDS011;16367;48.736;9.218;2023-11-22T08:20:22;6.65;;;2.60;;
29384;SDS011;16367;48.736;9.218;2023-11-22T08:23:24;7.45;;;2.63;;
29384;SDS011;16367;48.736;9.218;2023-11-22T08:27:35;6.65;;;2.58;;
29384;SDS011;16367;48.736;9.218;2023-11-22T08:29:37;7.28;;;2.63;;
29384;SDS011;16367;48.736;9.218;2023-11-22T08:31:38;7.35;;;2.70;;
29384;SDS011;16367;48.736;9.218;2023-11-22T08:33:39;8.20;;;3.20;;
29384;SDS011;16367;48.736;9.218;2023-11-22T08:35:40;6.32;;;2.45;;
29384;SDS011;16367;48.736;9.218;2023-11-22T08:39:43;7.68;;;3.05;;
29384;SDS011;16367;48.736;9.218;2023-11-22T08:41:44;7.88;;;2.80;;
29384;SDS011;16367;48.736;9.218;2023-11-22T08:43:46;7.72;;;3.22;;
29384;SDS011;16367;48.736;9.218;2023-11-22T08:51:32;6.15;;;2.47;;
29384;SDS011;16367;48.736;9.218;2023-11-22T08:53:34;7.68;;;2.80;;
29384;SDS011;16367;48.736;9.218;2023-11-22T08:57:36;6.97;;;2.65;;
29384;SDS011;16367;48.736;9.218;2023-11-22T08:59:37;8.45;;;3.60;;
29384;SDS011;16367;48.736;9.218;2023-11-22T09:01:38;7.75;;;3.10;;
29384;SDS011;16367;48.736;9.218;2023-11-22T09:03:41;6.97;;;2.78;;
29384;SDS011;16367;48.736;9.218;2023-11-22T09:05:44;6.50;;;2.35;;
29384;SDS011;16367;48.736;9.218;2023-11-22T09:10:12;7.47;;;2.88;;
29384;SDS011;16367;48.736;9.218;2023-11-22T09:12:14;7.22;;;2.83;;
29384;SDS011;16367;48.736;9.218;2023-11-22T09:14:15;8.85;;;3.08;;
29384;SDS011;16367;48.736;9.218;2023-11-22T09:18:20;7.53;;;2.83;;
29384;SDS011;16367;48.736;9.218;2023-11-22T09:20:22;7.05;;;2.97;;
29384;SDS011;16367;48.736;9.218;2023-11-22T09:22:24;7.15;;;3.15;;
29384;SDS011;16367;48.736;9.218;2023-11-22T09:24:27;7.57;;;2.70;;
29384;SDS011;16367;48.736;9.218;2023-11-22T09:31:53;8.43;;;3.33;;
29384;SDS011;16367;48.736;9.218;2023-11-22T09:33:55;8.95;;;3.45;;
29384;SDS011;16367;48.736;9.218;2023-11-22T09:35:57;8.00;;;3.28;;
29384;SDS011;16367;48.736;9.218;2023-11-22T09:37:59;10.27;;;3.95;;
29384;SDS011;16367;48.736;9.218;2023-11-22T09:40:00;7.80;;;2.80;;
29384;SDS011;16367;48.736;9.218;2023-11-22T09:42:03;7.70;;;3.58;;
29384;SDS011;16367;48.736;9.218;2023-11-22T09:44:05;7.53;;;3.13;;
29384;SDS011;16367;48.736;9.218;2023-11-22T09:46:07;10.38;;;3.05;;
29384;SDS011;16367;48.736;9.218;2023-11-22T09:48:15;7.68;;;3.33;;
29384;SDS011;16367;48.736;9.218;2023-11-22T09:53:31;7.63;;;3.10;;
29384;SDS011;16367;48.736;9.218;2023-11-22T09:55:34;8.25;;;3.25;;
29384;SDS011;16367;48.736;9.218;2023-11-22T09:57:36;6.82;;;3.10;;
29384;SDS011;16367;48.736;9.218;2023-11-22T09:59:40;8.38;;;3.45;;
29384;SDS011;16367;48.736;9.218;2023-11-22T10:01:42;6.53;;;2.90;;
29384;SDS011;16367;48.736;9.218;2023-11-22T10:03:44;6.57;;;3.10;;
29384;SDS011;16367;48.736;9.218;2023-11-22T10:05:46;7.85;;;3.33;;
29384;SDS011;16367;48.736;9.218;2023-11-22T10:07:47;9.70;;;3.83;;
29384;SDS011;16367;48.736;9.218;2023-11-22T10:09:50;9.00;;;3.83;;
29384;SDS011;16367;48.736;9.218;2023-11-22T10:18:06;9.40;;;3.08;;
29384;SDS011;16367;48.736;9.218;2023-11-22T10:20:08;10.40;;;3.33;;
29384;SDS011;16367;48.736;9.218;2023-11-22T10:22:11;9.35;;;3.47;;
29384;SDS011;16367;48.736;9.218;2023-11-22T10:24:17;8.63;;;3.78;;
29384;SDS011;16367;48.736;9.218;2023-11-22T10:26:22;9.68;;;3.78;;
29384;SDS011;16367;48.736;9.218;2023-11-22T10:28:26;11.15;;;3.78;;
29384;SDS011;16367;48.736;9.218;2023-11-22T10:30:28;7.05;;;3.30;;
29384;SDS011;16367;48.736;9.218;2023-11-22T10:32:30;6.72;;;3.00;;
29384;SDS011;16367;48.736;9.218;2023-11-22T10:34:33;8.88;;;3.50;;
29384;SDS011;16367;48.736;9.218;2023-11-22T10:40:01;8.85;;;3.67;;
29384;SDS011;16367;48.736;9.218;2023-11-22T10:42:06;8.40;;;3.33;;
29384;SDS011;16367;48.736;9.218;2023-11-22T10:44:09;8.32;;;3.50;;
29384;SDS011;16367;48.736;9.218;2023-11-22T10:46:10;9.27;;;3.60;;
29384;SDS011;16367;48.736;9.218;2023-11-22T10:48:14;11.48;;;3.95;;
29384;SDS011;16367;48.736;9.218;2023-11-22T10:50:16;8.65;;;3.33;;
29384;SDS011;16367;48.736;9.218;2023-11-22T10:52:18;7.78;;;3.20;;
29384;SDS011;16367;48.736;9.218;2023-11-22T10:54:19;9.38;;;3.30;;
29384;SDS011;16367;48.736;9.218;2023-11-22T10:56:24;10.50;;;4.50;;
29384;SDS011;16367;48.736;9.218;2023-11-22T11:01:44;8.38;;;3.90;;
29384;SDS011;16367;48.736;9.218;2023-11-22T11:03:52;10.63;;;3.83;;
29384;SDS011;16367;48.736;9.218;2023-11-22T11:05:58;9.32;;;3.72;;
29384;SDS011;16367;48.736;9.218;2023-11-22T11:08:00;9.15;;;3.65;;
29384;SDS011;16367;48.736;9.218;2023-11-22T11:10:11;10.05;;;5.88;;
29384;SDS011;16367;48.736;9.218;2023-11-22T11:12:22;8.55;;;3.58;;
29384;SDS011;16367;48.736;9.218;2023-11-22T11:14:24;11.00;;;4.10;;
29384;SDS011;16367;48.736;9.218;2023-11-22T11:16:27;9.38;;;4.18;;
29384;SDS011;16367;48.736;9.218;2023-11-22T11:18:32;12.07;;;4.25;;
29384;SDS011;16367;48.736;9.218;2023-11-22T11:26:49;10.02;;;3.95;;
29384;SDS011;16367;48.736;9.218;2023-11-22T11:28:53;10.23;;;3.90;;
29384;SDS011;16367;48.736;9.218;2023-11-22T11:30:56;11.55;;;4.82;;
29384;SDS011;16367;48.736;9.218;2023-11-22T11:32:58;9.75;;;4.47;;
29384;SDS011;16367;48.736;9.218;2023-11-22T11:34:59;10.25;;;4.00;;
29384;SDS011;16367;48.736;9.218;2023-11-22T11:37:02;8.90;;;4.35;;
29384;SDS011;16367;48.736;9.218;2023-11-22T11:39:05;9.55;;;4.43;;
29384;SDS011;16367;48.736;9.218;2023-11-22T11:41:11;10.77;;;4.80;;
29384;SDS011;16367;48.736;9.218;2023-11-22T11:43:14;12.27;;;4.75;;
29384;SDS011;16367;48.736;9.218;2023-11-22T11:47:28;12.68;;;4.72;;
29384;SDS011;16367;48.736;9.218;2023-11-22T11:49:30;11.82;;;4.78;;
29384;SDS011;16367;48.736;9.218;2023-11-22T11:51:31;10.23;;;4.65;;
29384;SDS011;16367;48.736;9.218;2023-11-22T11:53:32;9.07;;;4.57;;
29384;SDS011;16367;48.736;9.218;2023-11-22T11:55:34;10.10;;;4.78;;
29384;SDS011;16367;48.736;9.218;2023-11-22T11:57:36;12.02;;;4.60;;
29384;SDS011;16367;48.736;9.218;2023-11-22T11:59:37;8.15;;;4.30;;
29384;SDS011;16367;48.736;9.218;2023-11-22T12:01:43;12.85;;;6.00;;
29384;SDS011;16367;48.736;9.218;2023-11-22T12:03:45;10.88;;;4.95;;
29384;SDS011;16367;48.736;9.218;2023-11-22T12:10:01;10.43;;;4.82;;
29384;SDS011;16367;48.736;9.218;2023-11-22T12:12:02;10.98;;;5.20;;
29384;SDS011;16367;48.736;9.218;2023-11-22T12:14:04;10.80;;;4.53;;
29384;SDS011;16367;48.736;9.218;2023-11-22T12:16:06;10.80;;;5.03;;
29384;SDS011;16367;48.736;9.218;2023-11-22T12:18:11;10.02;;;4.78;;
29384;SDS011;16367;48.736;9.218;2023-11-22T12:20:13;10.10;;;3.83;;
29384;SDS011;16367;48.736;9.218;2023-11-22T12:22:17;8.25;;;3.85;;
29384;SDS011;16367;48.736;9.218;2023-11-22T12:24:19;8.48;;;3.83;;
29384;SDS011;16367;48.736;9.218;2023-11-22T12:26:21;10.85;;;4.68;;
29384;SDS011;16367;48.736;9.218;2023-11-22T12:31:45;9.18;;;3.83;;
29384;SDS011;16367;48.736;9.218;2023-11-22T12:33:51;9.52;;;4.22;;
29384;SDS011;16367;48.736;9.218;2023-11-22T12:35:54;11.98;;;4.78;;
29384;SDS011;16367;48.736;9.218;2023-11-22T12:37:55;8.65;;;4.13;;
29384;SDS011;16367;48.736;9.218;2023-11-22T12:39:58;10.48;;;4.38;;
29384;SDS011;16367;48.736;9.218;2023-11-22T12:42:00;10.23;;;4.57;;
29384;SDS011;16367;48.736;9.218;2023-11-22T12:44:11;10.13;;;4.40;;
29384;SDS011;16367;48.736;9.218;2023-11-22T12:46:13;12.20;;;4.50;;
29384;SDS011;16367;48.736;9.218;2023-11-22T12:48:24;8.23;;;3.92;;
29384;SDS011;16367;48.736;9.218;2023-11-22T12:56:43;9.15;;;4.57;;
29384;SDS011;16367;48.736;9.218;2023-11-22T12:58:45;9.23;;;4.78;;
29384;SDS011;16367;48.736;9.218;2023-11-22T13:00:48;9.50;;;4.28;;
29384;SDS011;16367;48.736;9.218;2023-11-22T13:02:51;10.35;;;4.55;;
29384;SDS011;16367;48.736;9.218;2023-11-22T13:05:04;10.27;;;4.90;;
29384;SDS011;16367;48.736;9.218;2023-11-22T13:07:11;11.88;;;5.07;;
29384;SDS011;16367;48.736;9.218;2023-11-22T13:09:13;10.55;;;4.47;;
29384;SDS011;16367;48.736;9.218;2023-11-22T13:11:16;10.55;;;4.68;;
29384;SDS011;16367;48.736;9.218;2023-11-22T13:13:20;9.13;;;4.70;;
29384;SDS011;16367;48.736;9.218;2023-11-22T13:20:06;10.57;;;4.40;;
29384;SDS011;16367;48.736;9.218;2023-11-22T13:22:14;9.00;;;3.60;;
29384;SDS011;16367;48.736;9.218;2023-11-22T13:24:17;12.38;;;5.13;;
29384;SDS011;16367;48.736;9.218;2023-11-22T13:26:18;9.75;;;4.25;;
29384;SDS011;16367;48.736;9.218;2023-11-22T13:28:20;10.20;;;4.90;;
29384;SDS011;16367;48.736;9.218;2023-11-22T13:30:22;10.18;;;4.30;;
29384;SDS011;16367;48.736;9.218;2023-11-22T13:32:23;10.63;;;4.28;;
29384;SDS011;16367;48.736;9.218;2023-11-22T13:34:27;9.50;;;3.50;;
29384;SDS011;16367;48.736;9.218;2023-11-22T13:36:30;10.02;;;4.05;;
29384;SDS011;16367;48.736;9.218;2023-11-22T13:44:03;12.02;;;3.95;;
29384;SDS011;16367;48.736;9.218;2023-11-22T13:46:05;9.73;;;4.25;;
29384;SDS011;16367;48.736;9.218;2023-11-22T13:48:10;8.93;;;3.92;;
29384;SDS011;16367;48.736;9.218;2023-11-22T13:50:12;10.02;;;4.28;;
29384;SDS011;16367;48.736;9.218;2023-11-22T13:52:19;9.35;;;4.22;;
29384;SDS011;16367;48.736;9.218;2023-11-22T13:54:20;11.15;;;4.45;;
29384;SDS011;16367;48.736;9.218;2023-11-22T13:56:22;9.10;;;4.00;;
29384;SDS011;16367;48.736;9.218;2023-11-22T13:58:23;8.65;;;3.33;;
29384;SDS011;16367;48.736;9.218;2023-11-22T14:00:26;10.00;;;3.92;;
29384;SDS011;16367;48.736;9.218;2023-11-22T14:06:44;11.05;;;3.70;;
29384;SDS011;16367;48.736;9.218;2023-11-22T14:08:45;7.18;;;2.92;;
29384;SDS011;16367;48.736;9.218;2023-11-22T14:10:47;8.73;;;4.13;;
29384;SDS011;16367;48.736;9.218;2023-11-22T14:12:48;8.27;;;3.28;;
29384;SDS011;16367;48.736;9.218;2023-11-22T14:14:50;8.95;;;3.83;;
29384;SDS011;16367;48.736;9.218;2023-11-22T14:16:52;7.90;;;3.80;;
29384;SDS011;16367;48.736;9.218;2023-11-22T14:18:53;8.77;;;3.85;;
29384;SDS011;16367;48.736;9.218;2023-11-22T14:20:55;11.18;;;3.88;;
29384;SDS011;16367;48.736;9.218;2023-11-22T14:22:57;9.02;;;4.28;;
29384;SDS011;16367;48.736;9.218;2023-11-22T14:30:28;7.85;;;3.55;;
29384;SDS011;16367;48.736;9.218;2023-11-22T14:32:31;10.93;;;4.78;;
29384;SDS011;16367;48.736;9.218;2023-11-22T14:34:33;9.70;;;3.42;;
29384;SDS011;16367;48.736;9.218;2023-11-22T14:36:34;8.57;;;3.60;;
29384;SDS011;16367;48.736;9.218;2023-11-22T14:38:37;10.63;;;4.10;;
29384;SDS011;16367;48.736;9.218;2023-11-22T14:40:42;8.77;;;4.25;;
29384;SDS011;16367;48.736;9.218;2023-11-22T14:42:43;9.05;;;3.80;;
29384;SDS011;16367;48.736;9.218;2023-11-22T14:44:47;11.05;;;4.15;;
29384;SDS011;16367;48.736;9.218;2023-11-22T14:46:49;11.40;;;3.97;;
29384;SDS011;16367;48.736;9.218;2023-11-22T14:51:04;9.02;;;3.80;;
29384;SDS011;16367;48.736;9.218;2023-11-22T14:53:08;11.32;;;4.05;;
29384;SDS011;16367;48.736;9.218;2023-11-22T14:55:10;9.48;;;3.75;;
29384;SDS011;16367;48.736;9.218;2023-11-22T14:57:12;9.85;;;3.45;;
29384;SDS011;16367;48.736;9.218;2023-11-22T14:59:14;7.50;;;3.65;;
29384;SDS011;16367;48.736;9.218;2023-11-22T15:01:16;8.60;;;3.45;;
29384;SDS011;16367;48.736;9.218;2023-11-22T15:03:17;9.55;;;3.83;;
29384;SDS011;16367;48.736;9.218;2023-11-22T15:05:19;8.32;;;3.78;;
29384;SDS011;16367;48.736;9.218;2023-11-22T15:07:21;9.13;;;3.83;;
29384;SDS011;16367;48.736;9.218;2023-11-22T15:11:45;9.55;;;3.80;;
29384;SDS011;16367;48.736;9.218;2023-11-22T15:13:46;7.72;;;3.65;;
29384;SDS011;16367;48.736;9.218;2023-11-22T15:15:48;9.75;;;4.20;;
29384;SDS011;16367;48.736;9.218;2023-11-22T15:17:49;9.45;;;3.67;;
29384;SDS011;16367;48.736;9.218;2023-11-22T15:19:50;8.63;;;3.47;;
29384;SDS011;16367;48.736;9.218;2023-11-22T15:21:52;9.95;;;4.07;;
29384;SDS011;16367;48.736;9.218;2023-11-22T15:23:53;8.30;;;3.58;;
29384;SDS011;16367;48.736;9.218;2023-11-22T15:25:56;9.48;;;4.05;;
29384;SDS011;16367;48.736;9.218;2023-11-22T15:28:00;9.55;;;4.15;;
29384;SDS011;16367;48.736;9.218;2023-11-22T15:32:56;8.63;;;3.60;;
29384;SDS011;16367;48.736;9.218;2023-11-22T15:34:59;8.43;;;3.80;;
29384;SDS011;16367;48.736;9.218;2023-11-22T15:37:00;8.50;;;3.90;;
29384;SDS011;16367;48.736;9.218;2023-11-22T15:39:02;10.90;;;4.80;;
29384;SDS011;16367;48.736;9.218;2023-11-22T15:41:04;10.43;;;4.55;;
29384;SDS011;16367;48.736;9.218;2023-11-22T15:43:16;11.00;;;4.35;;
29384;SDS011;16367;48.736;9.218;2023-11-22T15:45:17;9.55;;;4.53;;
29384;SDS011;16367;48.736;9.218;2023-11-22T15:47:19;9.18;;;4.47;;
29384;SDS011;16367;48.736;9.218;2023-11-22T15:49:21;9.07;;;4.10;;
29384;SDS011;16367;48.736;9.218;2023-11-22T15:54:37;10.60;;;5.35;;
29384;SDS011;16367;48.736;9.218;2023-11-22T15:56:38;9.38;;;4.80;;
29384;SDS011;16367;48.736;9.218;2023-11-22T15:58:40;10.88;;;5.60;;
29384;SDS011;16367;48.736;9.218;2023-11-22T16:00:42;9.30;;;5.05;;